| time (UTC) | temp C | wind direction | speed KPH | gust KPH | rain 1hr cm | rain 24hr cm | rain mn cm | humidity % | barometer mb |
| 20260506232846 | 25 | 254 | 4.8 | 9.7 | 0.00 | 0.00 | 0.00 | 55 | 1019.2 |
| 20260506232341 | 24 | 198 | 0.0 | 3.2 | 0.00 | 0.00 | 0.00 | 56 | 1019.3 |
| 20260506231833 | 25 | 282 | 3.2 | 4.8 | 0.00 | 0.00 | 0.00 | 54 | 1019.3 |
| 20260506231331 | 25 | 203 | 0.0 | 1.6 | 0.00 | 0.00 | 0.00 | 55 | 1019.3 |
| 20260506230828 | 24 | 208 | 0.0 | 4.8 | 0.00 | 0.00 | 0.00 | 57 | 1019.3 |
| 20260506230325 | 23 | 201 | 3.2 | 9.7 | 0.00 | 0.00 | 0.00 | 58 | 1019.4 |
| 20260506225820 | 23 | 62 | 6.4 | 12.9 | 0.00 | 0.00 | 0.00 | 59 | 1019.8 |
| 20260506225318 | 24 | 349 | 4.8 | 12.9 | 0.00 | 0.00 | 0.00 | 56 | 1019.8 |
| 20260506224815 | 25 | 206 | 1.6 | 3.2 | 0.00 | 0.00 | 0.00 | 55 | 1019.5 |
| 20260506224312 | 25 | 224 | 0.0 | 3.2 | 0.00 | 0.00 | 0.00 | 56 | 1019.6 |
| 20260506223809 | 24 | 199 | 0.0 | 4.8 | 0.00 | 0.00 | 0.00 | 57 | 1019.8 |
| 20260506223304 | 24 | 70 | 3.2 | 11.3 | 0.00 | 0.00 | 0.00 | 57 | 1019.6 |
| 20260506222801 | 23 | 235 | 0.0 | 3.2 | 0.00 | 0.00 | 0.00 | 56 | 1019.6 |
| 20260506222256 | 23 | 311 | 4.8 | 8.0 | 0.00 | 0.00 | 0.00 | 57 | 1019.9 |
| 20260506221754 | 25 | 337 | 3.2 | 9.7 | 0.00 | 0.00 | 0.00 | 56 | 1019.8 |
| 20260506221252 | 24 | 83 | 4.8 | 8.0 | 0.00 | 0.00 | 0.00 | 56 | 1020.0 |
| 20260506220749 | 25 | 54 | 8.0 | 12.9 | 0.00 | 0.00 | 0.00 | 56 | 1020.0 |
| 20260506220244 | 25 | 204 | 1.6 | 4.8 | 0.00 | 0.00 | 0.00 | 57 | 1019.8 |
| 20260506215741 | 24 | 268 | 1.6 | 3.2 | 0.00 | 0.00 | 0.00 | 56 | 1020.1 |
| 20260506215236 | 24 | 201 | 4.8 | 4.8 | 0.00 | 0.00 | 0.00 | 56 | 1020.3 |
| 20260506214733 | 23 | 235 | 3.2 | 8.0 | 0.00 | 0.00 | 0.00 | 58 | 1020.3 |
| 20260506214230 | 23 | 67 | 4.8 | 8.0 | 0.00 | 0.00 | 0.00 | 58 | 1020.5 |
| 20260506213728 | 23 | 181 | 0.0 | 1.6 | 0.00 | 0.00 | 0.00 | 59 | 1020.3 |
| 20260506213226 | 22 | 205 | 1.6 | 1.6 | 0.00 | 0.00 | 0.00 | 61 | 1020.4 |
| 20260506212723 | 23 | 126 | 4.8 | 8.0 | 0.00 | 0.00 | 0.00 | 59 | 1020.6 |
| 20260506212218 | 23 | 141 | 1.6 | 8.0 | 0.00 | 0.00 | 0.00 | 59 | 1020.7 |
| 20260506211713 | 23 | 110 | 3.2 | 4.8 | 0.00 | 0.00 | 0.00 | 57 | 1020.7 |
| 20260506211210 | 23 | 97 | 1.6 | 4.8 | 0.00 | 0.00 | 0.00 | 58 | 1020.7 |
| 20260506210707 | 23 | 210 | 0.0 | 1.6 | 0.00 | 0.00 | 0.00 | 57 | 1020.7 |
| 20260506210204 | 22 | 204 | 0.0 | 8.0 | 0.00 | 0.00 | 0.00 | 61 | 1020.7 |
| 20260506205702 | 22 | 269 | 8.0 | 9.7 | 0.00 | 0.00 | 0.00 | 61 | 1020.8 |
| 20260506205201 | 22 | 196 | 1.6 | 8.0 | 0.00 | 0.00 | 0.00 | 62 | 1020.9 |
| 20260506204659 | 22 | 294 | 4.8 | 9.7 | 0.00 | 0.00 | 0.00 | 62 | 1020.9 |
| 20260506204156 | 22 | 197 | 1.6 | 4.8 | 0.00 | 0.00 | 0.00 | 63 | 1020.9 |
| 20260506203654 | 22 | 293 | 4.8 | 4.8 | 0.00 | 0.00 | 0.00 | 62 | 1021.1 |
| 20260506203151 | 22 | 343 | 4.8 | 9.7 | 0.00 | 0.00 | 0.00 | 62 | 1021.1 |
| 20260506202649 | 21 | 321 | 3.2 | 8.0 | 0.00 | 0.00 | 0.00 | 63 | 1021.3 |
| 20260506202145 | 21 | 76 | 4.8 | 8.0 | 0.00 | 0.00 | 0.00 | 63 | 1021.1 |
| 20260506201642 | 21 | 187 | 1.6 | 4.8 | 0.00 | 0.00 | 0.00 | 64 | 1021.2 |
| 20260506201138 | 22 | 243 | 3.2 | 4.8 | 0.00 | 0.00 | 0.00 | 61 | 1021.3 |
| 20260506200635 | 22 | 197 | 0.0 | 3.2 | 0.00 | 0.00 | 0.00 | 62 | 1021.4 |
| 20260506200132 | 21 | 70 | 3.2 | 4.8 | 0.00 | 0.00 | 0.00 | 63 | 1021.6 |
| 20260506195628 | 22 | 202 | 1.6 | 4.8 | 0.00 | 0.00 | 0.00 | 62 | 1021.8 |
| 20260506195125 | 21 | 299 | 0.0 | 3.2 | 0.00 | 0.00 | 0.00 | 62 | 1021.5 |
| 20260506194622 | 21 | 253 | 4.8 | 8.0 | 0.00 | 0.00 | 0.00 | 63 | 1021.7 |
| 20260506194118 | 21 | 255 | 3.2 | 9.7 | 0.00 | 0.00 | 0.00 | 65 | 1021.6 |
| 20260506193616 | 20 | 199 | 0.0 | 9.7 | 0.00 | 0.00 | 0.00 | 67 | 1021.9 |
| 20260506193114 | 21 | 217 | 1.6 | 8.0 | 0.00 | 0.00 | 0.00 | 65 | 1021.7 |
| 20260506192610 | 21 | 199 | 0.0 | 1.6 | 0.00 | 0.00 | 0.00 | 66 | 1021.7 |
| 20260506192106 | 20 | 235 | 1.6 | 4.8 | 0.00 | 0.00 | 0.00 | 67 | 1021.7 |
| 20260506191603 | 20 | 246 | 3.2 | 3.2 | 0.00 | 0.00 | 0.00 | 67 | 1021.8 |
| 20260506191058 | 20 | 241 | 4.8 | 8.0 | 0.00 | 0.00 | 0.00 | 66 | 1021.8 |
| 20260506190556 | 21 | 247 | 3.2 | 4.8 | 0.00 | 0.00 | 0.00 | 66 | 1021.7 |
| 20260506190053 | 21 | 74 | 8.0 | 11.3 | 0.00 | 0.00 | 0.00 | 65 | 1022.0 |
| 20260506185545 | 20 | 200 | 0.0 | 3.2 | 0.00 | 0.00 | 0.00 | 65 | 1021.9 |
| 20260506185042 | 21 | 257 | 4.8 | 4.8 | 0.00 | 0.00 | 0.00 | 64 | 1022.0 |
| 20260506184539 | 20 | 133 | 0.0 | 4.8 | 0.00 | 0.00 | 0.00 | 67 | 1021.9 |
| 20260506184036 | 20 | 61 | 3.2 | 4.8 | 0.00 | 0.00 | 0.00 | 64 | 1021.9 |
| 20260506183531 | 20 | 201 | 0.0 | 1.6 | 0.00 | 0.00 | 0.00 | 68 | 1022.2 |
| 20260506183028 | 19 | 188 | 0.0 | 8.0 | 0.00 | 0.00 | 0.00 | 69 | 1022.0 |
| 20260506182526 | 18 | 214 | 0.0 | 4.8 | 0.00 | 0.00 | 0.00 | 70 | 1022.0 |
| 20260506182022 | 19 | 147 | 1.6 | 3.2 | 0.00 | 0.00 | 0.00 | 68 | 1022.3 |
| 20260506181520 | 18 | 203 | 1.6 | 1.6 | 0.00 | 0.00 | 0.00 | 71 | 1022.2 |
| 20260506181012 | 18 | 123 | 4.8 | 4.8 | 0.00 | 0.00 | 0.00 | 70 | 1022.3 |
| 20260506180508 | 18 | 113 | 1.6 | 4.8 | 0.00 | 0.00 | 0.00 | 71 | 1022.3 |
| 20260506180005 | 18 | 175 | 1.6 | 1.6 | 0.00 | 0.00 | 0.00 | 72 | 1022.1 |
| 20260506175500 | 18 | 247 | 1.6 | 3.2 | 0.00 | 0.00 | 0.00 | 72 | 1022.2 |
| 20260506174952 | 17 | 230 | 1.6 | 8.0 | 0.00 | 0.00 | 0.00 | 74 | 1022.3 |
| 20260506174450 | 17 | 235 | 1.6 | 4.8 | 0.00 | 0.00 | 0.00 | 74 | 1022.3 |
| 20260506173946 | 17 | 241 | 0.0 | 0.0 | 0.00 | 0.00 | 0.00 | 75 | 1022.5 |
| 20260506173444 | 17 | 175 | 0.0 | 0.0 | 0.00 | 0.00 | 0.00 | 76 | 1022.4 |
| 20260506172940 | 17 | 194 | 0.0 | 0.0 | 0.00 | 0.00 | 0.00 | 75 | 1022.6 |
| 20260506172437 | 17 | 205 | 0.0 | 0.0 | 0.00 | 0.00 | 0.00 | 75 | 1022.3 |
| 20260506171934 | 16 | 202 | 0.0 | 0.0 | 0.00 | 0.00 | 0.00 | 77 | 1022.5 |
| 20260506171432 | 16 | 200 | 0.0 | 0.0 | 0.00 | 0.00 | 0.00 | 78 | 1022.6 |
| 20260506170930 | 16 | 191 | 0.0 | 0.0 | 0.00 | 0.00 | 0.00 | 78 | 1022.3 |
| 20260506170425 | 15 | 211 | 0.0 | 0.0 | 0.00 | 0.00 | 0.00 | 80 | 1022.5 |
| 20260506165919 | 15 | 205 | 0.0 | 0.0 | 0.00 | 0.00 | 0.00 | 81 | 1022.5 |
| 20260506165416 | 15 | 213 | 0.0 | 0.0 | 0.00 | 0.00 | 0.00 | 81 | 1022.4 |
| 20260506164907 | 16 | 210 | 0.0 | 0.0 | 0.00 | 0.00 | 0.00 | 82 | 1022.6 |
| 20260506164403 | 15 | 211 | 0.0 | 0.0 | 0.00 | 0.00 | 0.00 | 82 | 1022.7 |
| 20260506163902 | 15 | 216 | 0.0 | 0.0 | 0.00 | 0.00 | 0.00 | 83 | 1022.6 |
| 20260506163401 | 15 | 211 | 0.0 | 0.0 | 0.00 | 0.00 | 0.00 | 83 | 1022.4 |
| 20260506162856 | 15 | 200 | 0.0 | 0.0 | 0.00 | 0.00 | 0.00 | 82 | 1022.4 |
| 20260506162354 | 15 | 206 | 0.0 | 0.0 | 0.00 | 0.00 | 0.00 | 82 | 1022.6 |
| 20260506161846 | 15 | 203 | 0.0 | 0.0 | 0.00 | 0.00 | 0.00 | 83 | 1022.4 |
| 20260506161343 | 15 | 205 | 0.0 | 0.0 | 0.00 | 0.00 | 0.00 | 84 | 1022.7 |
| 20260506160835 | 15 | 208 | 0.0 | 0.0 | 0.00 | 0.00 | 0.00 | 84 | 1022.6 |
| 20260506160331 | 15 | 211 | 0.0 | 0.0 | 0.00 | 0.00 | 0.00 | 85 | 1022.3 |
| 20260506155830 | 15 | 206 | 0.0 | 0.0 | 0.00 | 0.00 | 0.00 | 86 | 1022.4 |
| 20260506155326 | 14 | 205 | 0.0 | 0.0 | 0.00 | 0.00 | 0.00 | 86 | 1022.5 |
| 20260506153439 | 13 | 205 | 0.0 | 0.0 | 0.00 | 0.00 | 0.00 | 91 | 1022.4 |
| 20260506152937 | 13 | 210 | 0.0 | 0.0 | 0.00 | 0.00 | 0.00 | 92 | 1022.3 |
| 20260506152433 | 13 | 211 | 0.0 | 0.0 | 0.00 | 0.00 | 0.00 | 94 | 1022.4 |
| 20260506151932 | 13 | 204 | 0.0 | 0.0 | 0.00 | 0.00 | 0.00 | 95 | 1022.3 |
| 20260506151429 | 13 | 203 | 0.0 | 0.0 | 0.00 | 0.00 | 0.00 | 96 | 1022.3 |
| 20260506150926 | 12 | 209 | 0.0 | 0.0 | 0.00 | 0.00 | 0.00 | 97 | 1022.3 |
| 20260506150422 | 12 | 204 | 0.0 | 0.0 | 0.00 | 0.00 | 0.00 | 97 | 1022.4 |
| 20260506145919 | 12 | 202 | 0.0 | 0.0 | 0.00 | 0.00 | 0.00 | 98 | 1022.4 |
| 20260506145415 | 12 | 200 | 0.0 | 0.0 | 0.00 | 0.00 | 0.00 | 98 | 1022.3 |
| 20260506144913 | 12 | 199 | 0.0 | 0.0 | 0.00 | 0.00 | 0.00 | 98 | 1022.5 |
| 20260506144409 | 12 | 204 | 0.0 | 0.0 | 0.00 | 0.00 | 0.00 | 99 | 1022.3 |
| 20260506143908 | 12 | 203 | 0.0 | 0.0 | 0.00 | 0.00 | 0.00 | 99 | 1022.4 |
| 20260506143404 | 12 | 203 | 0.0 | 0.0 | 0.00 | 0.00 | 0.00 | 99 | 1022.2 |
| 20260506142903 | 12 | 203 | 0.0 | 0.0 | 0.00 | 0.00 | 0.00 | 99 | 1022.3 |
| 20260506142401 | 12 | 203 | 0.0 | 0.0 | 0.00 | 0.00 | 0.00 | 99 | 1022.2 |
| 20260506141858 | 12 | 203 | 0.0 | 0.0 | 0.00 | 0.00 | 0.00 | 99 | 1022.2 |
| 20260506141356 | 11 | 203 | 0.0 | 0.0 | 0.00 | 0.00 | 0.00 | 99 | 1022.1 |
| 20260506140854 | 11 | 203 | 0.0 | 0.0 | 0.00 | 0.00 | 0.00 | 99 | 1022.3 |
| 20260506140351 | 11 | 203 | 0.0 | 0.0 | 0.00 | 0.00 | 0.00 | 99 | 1022.1 |
| 20260506135848 | 11 | 203 | 0.0 | 0.0 | 0.00 | 0.00 | 0.00 | 98 | 1022.0 |
| 20260506135345 | 11 | 203 | 0.0 | 0.0 | 0.00 | 0.00 | 0.00 | 98 | 1021.9 |
| 20260506134841 | 11 | 203 | 0.0 | 0.0 | 0.00 | 0.00 | 0.00 | 98 | 1021.8 |
| 20260506134337 | 11 | 202 | 0.0 | 0.0 | 0.00 | 0.00 | 0.00 | 98 | 1021.8 |
| 20260506133834 | 10 | 203 | 0.0 | 0.0 | 0.00 | 0.00 | 0.00 | 98 | 1021.7 |
| 20260506133331 | 10 | 203 | 0.0 | 0.0 | 0.00 | 0.00 | 0.00 | 98 | 1021.8 |
| 20260506132828 | 10 | 203 | 0.0 | 0.0 | 0.00 | 0.00 | 0.00 | 98 | 1021.6 |
| 20260506132325 | 10 | 202 | 0.0 | 0.0 | 0.00 | 0.00 | 0.00 | 98 | 1021.4 |
| 20260506131823 | 10 | 202 | 0.0 | 0.0 | 0.00 | 0.00 | 0.00 | 98 | 1021.6 |
| 20260506131319 | 10 | 202 | 0.0 | 0.0 | 0.00 | 0.00 | 0.00 | 98 | 1021.4 |
| 20260506130816 | 10 | 202 | 0.0 | 0.0 | 0.00 | 0.00 | 0.00 | 98 | 1021.5 |
| 20260506130313 | 10 | 202 | 0.0 | 0.0 | 0.00 | 0.00 | 0.00 | 97 | 1021.4 |
| 20260506125811 | 10 | 202 | 0.0 | 0.0 | 0.00 | 0.00 | 0.00 | 97 | 1021.7 |
| 20260506125309 | 10 | 202 | 0.0 | 0.0 | 0.00 | 0.00 | 0.00 | 97 | 1021.3 |
| 20260506124807 | 10 | 202 | 0.0 | 0.0 | 0.00 | 0.00 | 0.00 | 97 | 1021.4 |
| 20260506124303 | 10 | 202 | 0.0 | 0.0 | 0.00 | 0.00 | 0.00 | 97 | 1021.4 |
| 20260506123801 | 10 | 202 | 0.0 | 0.0 | 0.00 | 0.00 | 0.00 | 97 | 1021.3 |
| 20260506123300 | 10 | 201 | 0.0 | 0.0 | 0.00 | 0.00 | 0.00 | 97 | 1021.3 |
| 20260506122756 | 10 | 201 | 0.0 | 0.0 | 0.00 | 0.00 | 0.00 | 97 | 1021.2 |
| 20260506122253 | 10 | 201 | 0.0 | 0.0 | 0.00 | 0.00 | 0.00 | 97 | 1021.3 |
| 20260506121751 | 10 | 201 | 0.0 | 0.0 | 0.00 | 0.00 | 0.00 | 97 | 1021.2 |
| 20260506121247 | 10 | 200 | 0.0 | 0.0 | 0.00 | 0.00 | 0.00 | 96 | 1021.0 |
| 20260506120744 | 10 | 201 | 0.0 | 0.0 | 0.00 | 0.00 | 0.00 | 96 | 1021.1 |
| 20260506120242 | 10 | 201 | 0.0 | 0.0 | 0.00 | 0.00 | 0.00 | 96 | 1021.0 |
| 20260506115735 | 10 | 200 | 0.0 | 0.0 | 0.00 | 0.00 | 0.00 | 96 | 1021.3 |
| 20260506115233 | 10 | 200 | 0.0 | 0.0 | 0.00 | 0.00 | 0.00 | 96 | 1021.1 |
| 20260506114730 | 10 | 200 | 0.0 | 0.0 | 0.00 | 0.00 | 0.00 | 96 | 1021.0 |
| 20260506114227 | 10 | 200 | 0.0 | 0.0 | 0.00 | 0.00 | 0.00 | 95 | 1020.9 |
| 20260506113726 | 10 | 200 | 0.0 | 0.0 | 0.00 | 0.00 | 0.00 | 95 | 1020.7 |
| 20260506113223 | 10 | 200 | 0.0 | 0.0 | 0.00 | 0.00 | 0.00 | 95 | 1021.0 |
| 20260506112719 | 10 | 200 | 0.0 | 0.0 | 0.00 | 0.00 | 0.00 | 95 | 1021.0 |
| 20260506112217 | 10 | 200 | 0.0 | 0.0 | 0.00 | 0.00 | 0.00 | 94 | 1021.1 |
| 20260506111714 | 10 | 200 | 0.0 | 0.0 | 0.00 | 0.00 | 0.00 | 94 | 1021.0 |
| 20260506111213 | 10 | 200 | 0.0 | 0.0 | 0.00 | 0.00 | 0.00 | 94 | 1021.2 |
| 20260506110709 | 10 | 190 | 0.0 | 0.0 | 0.00 | 0.00 | 0.00 | 93 | 1020.9 |
| 20260506110207 | 11 | 190 | 0.0 | 0.0 | 0.00 | 0.00 | 0.00 | 93 | 1020.8 |
| 20260506105703 | 11 | 190 | 0.0 | 0.0 | 0.00 | 0.00 | 0.00 | 93 | 1020.9 |
| 20260506105200 | 11 | 190 | 0.0 | 0.0 | 0.00 | 0.00 | 0.00 | 92 | 1020.7 |
| 20260506104658 | 11 | 190 | 0.0 | 0.0 | 0.00 | 0.00 | 0.00 | 92 | 1020.8 |
| 20260506104155 | 11 | 190 | 0.0 | 0.0 | 0.00 | 0.00 | 0.00 | 92 | 1020.7 |
| 20260506103652 | 11 | 190 | 0.0 | 0.0 | 0.00 | 0.00 | 0.00 | 91 | 1020.8 |
| 20260506103149 | 11 | 190 | 0.0 | 0.0 | 0.00 | 0.00 | 0.00 | 91 | 1020.7 |
| 20260506102647 | 11 | 190 | 0.0 | 0.0 | 0.00 | 0.00 | 0.00 | 91 | 1020.6 |
| 20260506102144 | 12 | 190 | 0.0 | 0.0 | 0.00 | 0.00 | 0.00 | 91 | 1020.6 |
| 20260506101641 | 12 | 190 | 0.0 | 0.0 | 0.00 | 0.00 | 0.00 | 90 | 1020.5 |
| 20260506101138 | 12 | 190 | 0.0 | 0.0 | 0.00 | 0.00 | 0.00 | 90 | 1020.8 |
| 20260506100637 | 12 | 190 | 0.0 | 0.0 | 0.00 | 0.00 | 0.00 | 89 | 1020.6 |
| 20260506100134 | 12 | 190 | 0.0 | 0.0 | 0.00 | 0.00 | 0.00 | 89 | 1020.6 |
| 20260506095632 | 12 | 190 | 0.0 | 0.0 | 0.00 | 0.00 | 0.00 | 89 | 1020.5 |
| 20260506095129 | 13 | 190 | 0.0 | 0.0 | 0.00 | 0.00 | 0.00 | 89 | 1020.6 |
| 20260506094626 | 13 | 190 | 0.0 | 0.0 | 0.00 | 0.00 | 0.00 | 89 | 1020.5 |
| 20260506094124 | 13 | 190 | 0.0 | 0.0 | 0.00 | 0.00 | 0.00 | 89 | 1020.8 |
| 20260506093622 | 13 | 190 | 0.0 | 0.0 | 0.00 | 0.00 | 0.00 | 89 | 1020.6 |
| 20260506093119 | 13 | 190 | 0.0 | 0.0 | 0.00 | 0.00 | 0.00 | 89 | 1020.5 |
| 20260506092616 | 13 | 201 | 0.0 | 0.0 | 0.00 | 0.00 | 0.00 | 89 | 1020.6 |
| 20260506092113 | 13 | 201 | 0.0 | 0.0 | 0.00 | 0.00 | 0.00 | 89 | 1020.9 |
| 20260506091611 | 13 | 202 | 0.0 | 0.0 | 0.00 | 0.00 | 0.00 | 89 | 1020.6 |
| 20260506091108 | 13 | 200 | 0.0 | 0.0 | 0.00 | 0.00 | 0.00 | 88 | 1020.5 |
| 20260506090607 | 13 | 203 | 0.0 | 0.0 | 0.00 | 0.00 | 0.00 | 88 | 1020.4 |
| 20260506085559 | 13 | 201 | 0.0 | 0.0 | 0.00 | 0.00 | 0.00 | 88 | 1020.5 |
| 20260506085055 | 13 | 190 | 0.0 | 0.0 | 0.00 | 0.00 | 0.00 | 88 | 1020.3 |
| 20260506084553 | 13 | 190 | 0.0 | 0.0 | 0.00 | 0.00 | 0.00 | 88 | 1020.4 |
| 20260506084049 | 13 | 192 | 0.0 | 0.0 | 0.00 | 0.00 | 0.00 | 88 | 1020.7 |
| 20260506083546 | 13 | 198 | 0.0 | 0.0 | 0.00 | 0.00 | 0.00 | 88 | 1020.6 |
| 20260506083043 | 13 | 198 | 0.0 | 0.0 | 0.00 | 0.00 | 0.00 | 88 | 1020.6 |
| 20260506082540 | 13 | 199 | 0.0 | 0.0 | 0.00 | 0.00 | 0.00 | 87 | 1020.5 |
| 20260506082036 | 13 | 200 | 0.0 | 0.0 | 0.00 | 0.00 | 0.00 | 87 | 1020.5 |
| 20260506081534 | 13 | 195 | 0.0 | 0.0 | 0.00 | 0.00 | 0.00 | 87 | 1020.7 |
| 20260506081031 | 13 | 195 | 0.0 | 0.0 | 0.00 | 0.00 | 0.00 | 87 | 1020.7 |
| 20260506080529 | 13 | 199 | 0.0 | 0.0 | 0.00 | 0.00 | 0.00 | 87 | 1020.6 |
| 20260506073512 | 13 | 199 | 0.0 | 0.0 | 0.00 | 0.00 | 0.00 | 87 | 1020.5 |
| 20260506073010 | 13 | 199 | 0.0 | 0.0 | 0.00 | 0.00 | 0.00 | 86 | 1020.3 |
| 20260506072507 | 13 | 189 | 0.0 | 0.0 | 0.00 | 0.00 | 0.00 | 86 | 1020.4 |
| 20260506072004 | 13 | 196 | 0.0 | 0.0 | 0.00 | 0.00 | 0.00 | 86 | 1020.3 |
| 20260506071502 | 13 | 195 | 0.0 | 0.0 | 0.00 | 0.00 | 0.00 | 86 | 1020.5 |
| 20260506070959 | 13 | 203 | 0.0 | 0.0 | 0.00 | 0.00 | 0.00 | 86 | 1020.3 |
| 20260506070456 | 13 | 195 | 0.0 | 0.0 | 0.00 | 0.00 | 0.00 | 86 | 1020.2 |
| 20260506062434 | 13 | 194 | 0.0 | 0.0 | 0.00 | 0.00 | 0.00 | 85 | 1019.9 |
| 20260506061929 | 14 | 201 | 0.0 | 0.0 | 0.00 | 0.00 | 0.00 | 85 | 1020.1 |
| 20260506061426 | 13 | 197 | 0.0 | 0.0 | 0.00 | 0.00 | 0.00 | 84 | 1020.0 |
| 20260506060924 | 13 | 201 | 0.0 | 0.0 | 0.00 | 0.00 | 0.00 | 84 | 1020.0 |
| 20260506060422 | 13 | 197 | 0.0 | 0.0 | 0.00 | 0.00 | 0.00 | 83 | 1019.8 |
| 20260506051354 | 14 | 199 | 0.0 | 0.0 | 0.00 | 0.00 | 0.00 | 82 | 1019.7 |
| 20260506050851 | 14 | 199 | 0.0 | 0.0 | 0.00 | 0.00 | 0.00 | 82 | 1019.5 |
| 20260506050348 | 14 | 199 | 0.0 | 0.0 | 0.00 | 0.00 | 0.00 | 82 | 1019.5 |
| 20260506044839 | 14 | 199 | 0.0 | 0.0 | 0.00 | 0.00 | 0.00 | 81 | 1019.3 |
| 20260506044337 | 15 | 199 | 0.0 | 0.0 | 0.00 | 0.00 | 0.00 | 81 | 1019.2 |
| 20260506043833 | 15 | 201 | 0.0 | 0.0 | 0.00 | 0.00 | 0.00 | 81 | 1019.1 |
| 20260506043331 | 15 | 201 | 0.0 | 0.0 | 0.00 | 0.00 | 0.00 | 81 | 1019.2 |
| 20260506042830 | 15 | 201 | 0.0 | 0.0 | 0.00 | 0.00 | 0.00 | 81 | 1019.0 |
| 20260506042328 | 15 | 202 | 0.0 | 0.0 | 0.00 | 0.00 | 0.00 | 81 | 1019.1 |
| 20260506041826 | 15 | 213 | 0.0 | 0.0 | 0.00 | 0.00 | 0.00 | 81 | 1019.3 |
| 20260506041323 | 15 | 199 | 0.0 | 0.0 | 0.00 | 0.00 | 0.00 | 81 | 1019.1 |
| 20260506040820 | 15 | 199 | 0.0 | 0.0 | 0.00 | 0.00 | 0.00 | 81 | 1018.9 |
| 20260506040317 | 15 | 203 | 0.0 | 0.0 | 0.00 | 0.00 | 0.00 | 81 | 1018.8 |
| 20260506035813 | 15 | 209 | 1.6 | 1.6 | 0.00 | 0.00 | 0.00 | 81 | 1018.7 |
| 20260506035311 | 15 | 217 | 0.0 | 0.0 | 0.00 | 0.00 | 0.00 | 81 | 1018.5 |
| 20260506034808 | 15 | 218 | 0.0 | 1.6 | 0.00 | 0.00 | 0.00 | 81 | 1018.6 |
| 20260506034305 | 15 | 222 | 0.0 | 1.6 | 0.00 | 0.00 | 0.00 | 80 | 1018.6 |
| 20260506033802 | 15 | 213 | 0.0 | 0.0 | 0.00 | 0.00 | 0.00 | 80 | 1018.6 |
| 20260506033259 | 15 | 249 | 1.6 | 1.6 | 0.00 | 0.00 | 0.00 | 80 | 1018.2 |
| 20260506032756 | 15 | 218 | 1.6 | 4.8 | 0.00 | 0.00 | 0.00 | 80 | 1018.4 |
| 20260506032253 | 15 | 298 | 1.6 | 3.2 | 0.00 | 0.00 | 0.00 | 80 | 1018.3 |
| 20260506031749 | 15 | 208 | 0.0 | 0.0 | 0.00 | 0.00 | 0.00 | 80 | 1018.0 |
| 20260506031247 | 15 | 208 | 0.0 | 1.6 | 0.00 | 0.00 | 0.00 | 79 | 1018.1 |
| 20260506030745 | 15 | 207 | 0.0 | 0.0 | 0.00 | 0.00 | 0.00 | 79 | 1018.0 |
| 20260506030242 | 15 | 204 | 0.0 | 0.0 | 0.00 | 0.00 | 0.00 | 78 | 1018.0 |
| 20260506025739 | 15 | 189 | 0.0 | 1.6 | 0.00 | 0.00 | 0.00 | 78 | 1018.2 |
| 20260506025235 | 15 | 195 | 0.0 | 0.0 | 0.00 | 0.00 | 0.00 | 77 | 1017.9 |
| 20260506024732 | 16 | 195 | 0.0 | 1.6 | 0.00 | 0.00 | 0.00 | 77 | 1017.9 |
| 20260506024228 | 16 | 203 | 0.0 | 1.6 | 0.00 | 0.00 | 0.00 | 76 | 1017.8 |
| 20260506023720 | 16 | 205 | 0.0 | 4.8 | 0.00 | 0.00 | 0.00 | 76 | 1017.7 |
| 20260506023217 | 16 | 213 | 1.6 | 1.6 | 0.00 | 0.00 | 0.00 | 76 | 1017.7 |
| 20260506022714 | 16 | 213 | 0.0 | 3.2 | 0.00 | 0.00 | 0.00 | 76 | 1017.8 |
| 20260506022212 | 16 | 239 | 1.6 | 1.6 | 0.00 | 0.00 | 0.00 | 76 | 1017.6 |
| 20260506021709 | 16 | 197 | 0.0 | 1.6 | 0.00 | 0.00 | 0.00 | 75 | 1017.7 |
| 20260506021206 | 16 | 204 | 0.0 | 1.6 | 0.00 | 0.00 | 0.00 | 75 | 1017.7 |
| 20260506020703 | 16 | 207 | 0.0 | 4.8 | 0.00 | 0.00 | 0.00 | 75 | 1017.4 |
| 20260506020201 | 16 | 203 | 0.0 | 1.6 | 0.00 | 0.00 | 0.00 | 75 | 1017.4 |
| 20260506015658 | 16 | 184 | 0.0 | 3.2 | 0.00 | 0.00 | 0.00 | 75 | 1017.7 |
| 20260506015155 | 16 | 207 | 0.0 | 1.6 | 0.00 | 0.00 | 0.00 | 75 | 1017.7 |
| 20260506014647 | 16 | 191 | 0.0 | 1.6 | 0.00 | 0.00 | 0.00 | 75 | 1017.5 |
| 20260506014142 | 16 | 195 | 0.0 | 1.6 | 0.00 | 0.00 | 0.00 | 75 | 1017.5 |
| 20260506013641 | 16 | 211 | 0.0 | 1.6 | 0.00 | 0.00 | 0.00 | 75 | 1017.8 |
| 20260506013137 | 16 | 198 | 0.0 | 1.6 | 0.00 | 0.00 | 0.00 | 75 | 1017.7 |
| 20260506012633 | 16 | 209 | 1.6 | 1.6 | 0.00 | 0.00 | 0.00 | 75 | 1017.5 |
| 20260506012129 | 16 | 222 | 0.0 | 4.8 | 0.00 | 0.00 | 0.00 | 75 | 1017.6 |
| 20260506011627 | 16 | 206 | 0.0 | 1.6 | 0.00 | 0.00 | 0.00 | 75 | 1017.5 |
| 20260506011123 | 16 | 207 | 0.0 | 3.2 | 0.00 | 0.00 | 0.00 | 74 | 1017.5 |
| 20260506010622 | 16 | 202 | 0.0 | 1.6 | 0.00 | 0.00 | 0.00 | 75 | 1017.6 |
| 20260506010119 | 16 | 195 | 1.6 | 3.2 | 0.00 | 0.00 | 0.00 | 75 | 1017.6 |
| 20260506005616 | 16 | 199 | 3.2 | 4.8 | 0.00 | 0.00 | 0.00 | 74 | 1017.6 |
| 20260506005112 | 16 | 197 | 1.6 | 3.2 | 0.00 | 0.00 | 0.00 | 74 | 1017.6 |
| 20260506004609 | 16 | 200 | 3.2 | 8.0 | 0.00 | 0.00 | 0.00 | 74 | 1017.3 |
| 20260506004106 | 16 | 216 | 1.6 | 4.8 | 0.00 | 0.00 | 0.00 | 73 | 1017.3 |
| 20260506003602 | 16 | 203 | 0.0 | 1.6 | 0.00 | 0.00 | 0.00 | 74 | 1017.5 |
| 20260506003058 | 16 | 208 | 0.0 | 3.2 | 0.00 | 0.00 | 0.00 | 73 | 1017.5 |
| 20260506002554 | 16 | 238 | 3.2 | 8.0 | 0.00 | 0.00 | 0.00 | 74 | 1017.4 |
| 20260506002050 | 16 | 205 | 1.6 | 4.8 | 0.00 | 0.00 | 0.00 | 74 | 1017.2 |
| 20260506001546 | 16 | 210 | 0.0 | 9.7 | 0.00 | 0.00 | 0.00 | 74 | 1017.2 |
| 20260506001044 | 16 | 208 | 1.6 | 8.0 | 0.00 | 0.00 | 0.00 | 73 | 1017.2 |
| 20260506000542 | 16 | 254 | 1.6 | 8.0 | 0.00 | 0.00 | 0.00 | 74 | 1017.1 |
| 20260506000039 | 16 | 208 | 1.6 | 4.8 | 0.00 | 0.00 | 0.00 | 73 | 1017.0 |
| 20260505235537 | 16 | 194 | 1.6 | 3.2 | 0.00 | 0.00 | 0.00 | 73 | 1017.3 |
| 20260505235033 | 16 | 236 | 3.2 | 4.8 | 0.00 | 0.00 | 0.00 | 73 | 1017.1 |
| 20260505234530 | 16 | 203 | 0.0 | 1.6 | 0.00 | 0.00 | 0.00 | 73 | 1017.3 |
| 20260505234027 | 16 | 262 | 1.6 | 11.3 | 0.00 | 0.00 | 0.00 | 73 | 1017.0 |
| 20260505233525 | 17 | 201 | 1.6 | 11.3 | 0.00 | 0.00 | 0.00 | 72 | 1017.1 |
| 20260505233022 | 17 | 246 | 1.6 | 9.7 | 0.00 | 0.00 | 0.00 | 72 | 1017.2 |